Time;durP1;ratioP1;P1;durP2;ratioP2;P2;SDS_P1;SDS_P2;PMS_P1;PMS_P2;Temp;Humidity;BMP_temperature;BMP_pressure;BME280_temperature;BME280_humidity;BME280_pressure;Samples;Min_cycle;Max_cycle;Signal;HPM_P1;HPM_P2
2022/12/20 00:02:17;;;;;;;2.07;1.33;;;;;;;;;;5044974;28;20253;-80
2022/12/20 00:04:42;;;;;;;1.40;1.30;;;;;;;;;;5043910;28;20233;-80
2022/12/20 00:07:07;;;;;;;1.30;1.20;;;;;;;;;;5046890;28;20170;-81
2022/12/20 00:09:32;;;;;;;1.90;1.70;;;;;;;;;;5039882;28;20174;-80
2022/12/20 00:11:57;;;;;;;1.70;1.60;;;;;;;;;;5045472;28;20282;-80
2022/12/20 00:14:23;;;;;;;2.10;1.43;;;;;;;;;;5046844;28;20596;-80
2022/12/20 00:16:48;;;;;;;1.53;1.43;;;;;;;;;;5044755;28;20188;-81
2022/12/20 00:19:13;;;;;;;1.73;1.40;;;;;;;;;;5040516;28;20242;-80
2022/12/20 00:21:38;;;;;;;2.50;1.43;;;;;;;;;;5045632;28;20193;-81
2022/12/20 00:24:04;;;;;;;1.70;1.57;;;;;;;;;;5044361;28;20241;-80
2022/12/20 00:26:31;;;;;;;1.97;1.60;;;;;;;;;;5052262;28;20215;-80
2022/12/20 00:28:57;;;;;;;2.67;1.30;;;;;;;;;;5045840;28;20315;-81
2022/12/20 00:31:23;;;;;;;1.50;1.40;;;;;;;;;;5047410;28;20249;-81
2022/12/20 00:33:49;;;;;;;1.80;1.40;;;;;;;;;;5049735;28;20211;-80
2022/12/20 00:36:14;;;;;;;2.17;1.57;;;;;;;;;;5047282;28;20540;-80
2022/12/20 00:38:40;;;;;;;1.50;1.40;;;;;;;;;;5051762;28;20240;-80
2022/12/20 00:41:07;;;;;;;1.50;1.40;;;;;;;;;;5043379;28;20272;-81
2022/12/20 00:43:32;;;;;;;1.50;1.40;;;;;;;;;;5057820;28;20254;-80
2022/12/20 00:45:58;;;;;;;1.40;1.30;;;;;;;;;;5049427;28;20169;-81
2022/12/20 00:48:23;;;;;;;1.60;1.50;;;;;;;;;;5051092;28;20237;-81
2022/12/20 00:50:49;;;;;;;1.67;1.57;;;;;;;;;;5048227;28;20201;-81
2022/12/20 00:53:14;;;;;;;1.73;1.50;;;;;;;;;;5053769;28;20186;-80
2022/12/20 00:55:40;;;;;;;1.67;1.53;;;;;;;;;;5047463;28;20223;-81
2022/12/20 00:58:05;;;;;;;1.90;1.50;;;;;;;;;;5047577;28;20248;-81
2022/12/20 01:00:30;;;;;;;1.50;1.40;;;;;;;;;;5041474;28;20255;-80
2022/12/20 01:02:56;;;;;;;2.23;1.80;;;;;;;;;;5044624;28;20243;-81
2022/12/20 01:05:21;;;;;;;1.60;1.40;;;;;;;;;;5054403;28;20189;-81
2022/12/20 01:07:46;;;;;;;2.00;1.43;;;;;;;;;;5048091;28;20257;-81
2022/12/20 01:10:11;;;;;;;1.60;1.50;;;;;;;;;;5050814;28;20188;-80
2022/12/20 01:12:37;;;;;;;1.73;1.63;;;;;;;;;;5049362;28;20182;-80
2022/12/20 01:15:02;;;;;;;1.77;1.60;;;;;;;;;;5050455;28;20186;-80
2022/12/20 01:17:27;;;;;;;1.60;1.30;;;;;;;;;;5057180;28;20203;-80
2022/12/20 01:19:53;;;;;;;1.70;1.60;;;;;;;;;;5042366;28;20189;-81
2022/12/20 01:22:18;;;;;;;1.37;1.27;;;;;;;;;;5047995;28;20188;-81
2022/12/20 01:24:43;;;;;;;3.07;1.90;;;;;;;;;;5046164;28;20206;-80
2022/12/20 01:27:08;;;;;;;1.50;1.30;;;;;;;;;;5066683;28;20181;-80
2022/12/20 01:29:33;;;;;;;1.63;1.53;;;;;;;;;;5045126;28;20846;-80
2022/12/20 01:31:59;;;;;;;1.53;1.43;;;;;;;;;;5048608;28;20183;-81
2022/12/20 01:34:24;;;;;;;1.70;1.37;;;;;;;;;;5049725;28;20307;-81
2022/12/20 01:36:50;;;;;;;2.03;1.53;;;;;;;;;;5044024;28;20204;-81
2022/12/20 01:39:16;;;;;;;1.50;1.40;;;;;;;;;;5046272;28;20205;-80
2022/12/20 01:41:43;;;;;;;1.50;1.40;;;;;;;;;;5047888;28;20188;-80
2022/12/20 01:44:15;;;;;;;1.67;1.57;;;;;;;;;;5047926;28;20209;-80
2022/12/20 01:46:40;;;;;;;2.33;1.60;;;;;;;;;;5047177;28;20214;-80
2022/12/20 01:49:12;;;;;;;1.60;1.30;;;;;;;;;;5050558;28;20247;-81
2022/12/20 01:51:43;;;;;;;1.83;1.73;;;;;;;;;;5045709;28;20231;-81
2022/12/20 01:54:10;;;;;;;1.37;1.27;;;;;;;;;;5050176;28;20186;-80
2022/12/20 01:56:36;;;;;;;1.27;1.23;;;;;;;;;;5042230;28;20202;-81
2022/12/20 01:59:01;;;;;;;1.43;1.27;;;;;;;;;;5044705;28;20178;-80
2022/12/20 02:01:27;;;;;;;1.50;1.40;;;;;;;;;;5066002;28;20178;-80
2022/12/20 02:03:53;;;;;;;1.40;1.27;;;;;;;;;;5049788;28;20224;-80
2022/12/20 02:06:20;;;;;;;1.47;1.37;;;;;;;;;;5065930;28;20183;-80
2022/12/20 02:08:47;;;;;;;1.37;1.27;;;;;;;;;;5043935;28;20194;-81
2022/12/20 02:11:31;;;;;;;2.00;1.63;;;;;;;;;;5062747;28;20189;-80
2022/12/20 02:14:07;;;;;;;1.63;1.53;;;;;;;;;;5045598;28;20182;-81
2022/12/20 02:16:37;;;;;;;1.50;1.37;;;;;;;;;;5046083;28;20183;-80
2022/12/20 02:19:20;;;;;;;1.80;1.70;;;;;;;;;;5043172;28;20207;-81
2022/12/20 02:21:51;;;;;;;2.03;1.43;;;;;;;;;;5041734;28;20216;-81
2022/12/20 02:24:16;;;;;;;1.53;1.27;;;;;;;;;;5049577;28;20277;-80
2022/12/20 02:26:48;;;;;;;1.67;1.57;;;;;;;;;;5047212;28;20207;-81
2022/12/20 02:29:13;;;;;;;2.00;1.50;;;;;;;;;;5038688;28;20180;-80
2022/12/20 02:31:40;;;;;;;1.87;1.40;;;;;;;;;;5043276;28;20178;-80
2022/12/20 02:34:07;;;;;;;2.10;1.37;;;;;;;;;;5043224;28;20205;-81
2022/12/20 02:36:32;;;;;;;1.67;1.37;;;;;;;;;;5018775;28;20192;-80
2022/12/20 02:38:57;;;;;;;1.53;1.40;;;;;;;;;;5029660;28;20201;-81
2022/12/20 02:41:22;;;;;;;1.63;1.50;;;;;;;;;;5008782;28;20193;-80
2022/12/20 02:46:35;;;;;;;1.20;1.20;;;;;;;;;;5034262;28;20183;-80
2022/12/20 02:49:01;;;;;;;1.50;1.40;;;;;;;;;;5002015;28;20179;-81
2022/12/20 02:51:28;;;;;;;1.47;1.37;;;;;;;;;;5006389;28;20178;-81
2022/12/20 02:53:54;;;;;;;1.47;1.37;;;;;;;;;;5013354;28;20189;-81
2022/12/20 02:56:31;;;;;;;1.70;1.60;;;;;;;;;;5020161;28;20171;-80
2022/12/20 02:59:02;;;;;;;1.60;1.50;;;;;;;;;;5006377;28;20192;-80
2022/12/20 03:01:34;;;;;;;1.60;1.50;;;;;;;;;;5009546;28;20181;-80
2022/12/20 03:04:00;;;;;;;2.97;1.40;;;;;;;;;;5011513;28;20202;-80
2022/12/20 03:06:25;;;;;;;1.50;1.40;;;;;;;;;;5011956;28;20178;-81
2022/12/20 03:08:50;;;;;;;1.87;1.73;;;;;;;;;;5020944;28;20193;-80
2022/12/20 03:11:16;;;;;;;1.40;1.30;;;;;;;;;;5027186;28;20182;-80
2022/12/20 03:13:41;;;;;;;1.70;1.60;;;;;;;;;;5012299;28;20192;-81
2022/12/20 03:16:07;;;;;;;1.67;1.50;;;;;;;;;;5015131;28;20185;-80
2022/12/20 03:18:32;;;;;;;3.07;2.20;;;;;;;;;;5019974;28;20278;-81
2022/12/20 03:20:58;;;;;;;2.93;1.30;;;;;;;;;;5014454;28;20254;-80
2022/12/20 03:23:23;;;;;;;3.53;2.63;;;;;;;;;;5011969;28;20210;-80
2022/12/20 03:25:48;;;;;;;2.17;1.60;;;;;;;;;;5010619;28;20262;-80
2022/12/20 03:28:13;;;;;;;1.63;1.53;;;;;;;;;;5007111;28;20234;-80
2022/12/20 03:30:38;;;;;;;2.73;1.70;;;;;;;;;;5004941;28;20172;-81
2022/12/20 03:33:04;;;;;;;1.67;1.57;;;;;;;;;;5003947;28;20245;-80
2022/12/20 03:35:29;;;;;;;2.57;1.60;;;;;;;;;;5029910;28;20227;-81
2022/12/20 03:37:55;;;;;;;3.00;1.60;;;;;;;;;;5045323;28;20181;-80
2022/12/20 03:40:20;;;;;;;2.07;1.97;;;;;;;;;;5045344;28;20195;-81
2022/12/20 03:42:45;;;;;;;2.83;2.63;;;;;;;;;;5047138;28;20186;-80
2022/12/20 03:45:10;;;;;;;1.73;1.63;;;;;;;;;;5047829;28;20343;-80
2022/12/20 03:47:36;;;;;;;1.83;1.73;;;;;;;;;;5046932;28;20209;-80
2022/12/20 03:50:01;;;;;;;2.87;2.13;;;;;;;;;;5044087;28;20180;-80
2022/12/20 03:52:26;;;;;;;2.10;1.90;;;;;;;;;;5040638;28;20175;-80
2022/12/20 03:54:52;;;;;;;2.33;2.13;;;;;;;;;;5047342;28;20174;-81
2022/12/20 03:57:17;;;;;;;2.33;2.13;;;;;;;;;;5041373;28;20269;-80
2022/12/20 03:59:42;;;;;;;1.87;1.70;;;;;;;;;;5042164;28;20236;-81
2022/12/20 04:02:07;;;;;;;3.10;1.53;;;;;;;;;;5046497;28;20196;-80
2022/12/20 04:04:32;;;;;;;1.50;1.40;;;;;;;;;;5045057;28;20231;-80
2022/12/20 04:06:58;;;;;;;1.40;1.30;;;;;;;;;;5063573;28;20177;-80
2022/12/20 04:09:23;;;;;;;1.60;1.50;;;;;;;;;;5044602;28;20184;-80
2022/12/20 04:11:48;;;;;;;1.63;1.53;;;;;;;;;;5043857;28;20189;-80
2022/12/20 04:14:13;;;;;;;3.23;1.37;;;;;;;;;;5040434;28;20208;-81
2022/12/20 04:16:38;;;;;;;1.53;1.20;;;;;;;;;;5043084;28;20193;-80
2022/12/20 04:19:04;;;;;;;1.50;1.40;;;;;;;;;;5040013;28;20205;-80
2022/12/20 04:21:30;;;;;;;1.67;1.40;;;;;;;;;;5044202;28;20265;-80
2022/12/20 04:23:56;;;;;;;1.63;1.27;;;;;;;;;;5047436;28;20237;-80
2022/12/20 04:26:22;;;;;;;2.27;1.37;;;;;;;;;;5046776;28;20181;-80
2022/12/20 04:28:47;;;;;;;1.57;1.30;;;;;;;;;;5042512;28;20193;-81
2022/12/20 04:31:12;;;;;;;1.50;1.37;;;;;;;;;;5046557;28;20203;-80
2022/12/20 04:33:38;;;;;;;1.80;1.60;;;;;;;;;;5044468;28;20182;-80
2022/12/20 04:36:04;;;;;;;1.30;1.20;;;;;;;;;;5047137;28;20237;-80
2022/12/20 04:38:29;;;;;;;1.93;1.30;;;;;;;;;;5046210;28;20177;-80
2022/12/20 04:40:54;;;;;;;1.83;1.20;;;;;;;;;;5044492;28;20228;-80
2022/12/20 04:43:20;;;;;;;1.33;1.23;;;;;;;;;;5047501;28;20221;-80
2022/12/20 04:45:51;;;;;;;1.97;1.30;;;;;;;;;;5045216;28;20173;-81
2022/12/20 04:48:16;;;;;;;1.50;1.40;;;;;;;;;;5041606;28;20174;-80
2022/12/20 04:50:42;;;;;;;2.07;1.40;;;;;;;;;;5044930;28;20178;-80
2022/12/20 04:55:51;;;;;;;1.43;1.27;;;;;;;;;;5052036;28;20181;-81
2022/12/20 04:58:17;;;;;;;1.30;1.20;;;;;;;;;;5045099;28;20177;-80
2022/12/20 05:00:42;;;;;;;3.37;1.40;;;;;;;;;;5042855;28;20271;-81
2022/12/20 05:03:07;;;;;;;1.47;1.37;;;;;;;;;;5060726;28;20182;-80
2022/12/20 05:05:33;;;;;;;3.20;1.90;;;;;;;;;;5038006;28;20269;-80
2022/12/20 05:07:58;;;;;;;1.67;1.57;;;;;;;;;;5040324;28;20229;-80
2022/12/20 05:10:23;;;;;;;3.00;1.40;;;;;;;;;;5041511;28;20178;-80
2022/12/20 05:12:48;;;;;;;1.20;1.10;;;;;;;;;;5048854;28;20177;-80
2022/12/20 05:15:14;;;;;;;2.37;1.97;;;;;;;;;;5045640;28;20193;-81
2022/12/20 05:17:39;;;;;;;1.87;1.20;;;;;;;;;;5042946;28;20197;-80
2022/12/20 05:20:05;;;;;;;3.40;1.90;;;;;;;;;;5045058;28;20185;-81
2022/12/20 05:27:58;;;;;;;1.97;1.40;;;;;;;;;;5045097;28;20180;-80
2022/12/20 05:30:24;;;;;;;1.27;1.17;;;;;;;;;;5044563;28;20176;-81
2022/12/20 05:32:49;;;;;;;1.37;1.27;;;;;;;;;;5049824;28;20231;-81
2022/12/20 05:35:14;;;;;;;2.47;1.50;;;;;;;;;;5043647;28;20264;-80
2022/12/20 05:37:40;;;;;;;1.43;1.30;;;;;;;;;;5042707;28;20551;-80
2022/12/20 05:40:06;;;;;;;1.50;1.27;;;;;;;;;;5049266;28;20189;-80
2022/12/20 05:42:31;;;;;;;3.20;1.37;;;;;;;;;;5044265;28;20180;-81
2022/12/20 05:44:56;;;;;;;2.10;1.40;;;;;;;;;;5049592;28;20206;-81
2022/12/20 05:47:21;;;;;;;1.40;1.30;;;;;;;;;;5051451;28;20239;-80
2022/12/20 05:49:47;;;;;;;2.07;1.33;;;;;;;;;;5047427;28;20225;-80
2022/12/20 05:52:12;;;;;;;1.60;1.50;;;;;;;;;;5047590;28;20173;-81
2022/12/20 05:54:37;;;;;;;2.97;1.60;;;;;;;;;;5041630;28;20220;-80
2022/12/20 05:57:02;;;;;;;1.80;1.30;;;;;;;;;;5046713;28;20217;-80
2022/12/20 05:59:27;;;;;;;3.63;1.53;;;;;;;;;;5046050;28;20182;-80
2022/12/20 06:01:53;;;;;;;2.50;1.37;;;;;;;;;;5045115;28;20187;-80
2022/12/20 06:04:19;;;;;;;1.80;1.40;;;;;;;;;;5038004;28;20198;-81
2022/12/20 06:06:44;;;;;;;1.33;1.23;;;;;;;;;;5051422;28;20175;-80
2022/12/20 06:09:10;;;;;;;3.17;1.30;;;;;;;;;;5044810;28;20252;-80
2022/12/20 06:11:35;;;;;;;1.33;1.23;;;;;;;;;;5053129;28;20177;-80
2022/12/20 06:14:00;;;;;;;2.13;2.03;;;;;;;;;;5043554;28;20181;-80
2022/12/20 06:16:26;;;;;;;1.20;1.10;;;;;;;;;;5047757;28;20189;-80
2022/12/20 06:18:51;;;;;;;1.63;1.40;;;;;;;;;;5045865;28;20209;-80
2022/12/20 06:21:16;;;;;;;3.00;1.37;;;;;;;;;;5045699;28;20174;-80
2022/12/20 06:23:41;;;;;;;2.67;1.50;;;;;;;;;;5044012;28;20203;-80
2022/12/20 06:26:08;;;;;;;2.00;1.27;;;;;;;;;;5064625;28;20172;-80
2022/12/20 06:28:33;;;;;;;1.60;1.37;;;;;;;;;;5051444;28;20173;-80
2022/12/20 06:30:59;;;;;;;2.40;2.07;;;;;;;;;;5046365;28;20181;-80
2022/12/20 06:33:24;;;;;;;2.90;2.20;;;;;;;;;;5044874;28;20195;-80
2022/12/20 06:35:49;;;;;;;7.53;6.83;;;;;;;;;;5044977;28;20218;-80
2022/12/20 06:38:15;;;;;;;6.80;6.00;;;;;;;;;;5047351;28;20268;-80
2022/12/20 06:40:40;;;;;;;4.27;3.50;;;;;;;;;;5049737;28;20185;-80
2022/12/20 06:43:05;;;;;;;4.47;2.67;;;;;;;;;;5046483;28;20208;-81
2022/12/20 06:45:30;;;;;;;4.23;3.93;;;;;;;;;;5043429;28;20290;-80
2022/12/20 06:47:58;;;;;;;2.73;1.80;;;;;;;;;;5050907;28;20174;-80
2022/12/20 06:50:24;;;;;;;2.00;1.80;;;;;;;;;;5042737;28;20240;-80
2022/12/20 06:52:49;;;;;;;2.77;1.80;;;;;;;;;;5047895;28;20177;-80
2022/12/20 06:55:14;;;;;;;2.10;1.90;;;;;;;;;;5041421;28;20201;-80
2022/12/20 06:57:39;;;;;;;1.80;1.70;;;;;;;;;;5044868;28;20174;-81
2022/12/20 07:00:06;;;;;;;2.00;1.80;;;;;;;;;;5047188;28;20233;-80
2022/12/20 07:02:32;;;;;;;2.67;1.70;;;;;;;;;;5039302;28;20178;-80
2022/12/20 07:04:57;;;;;;;2.23;2.00;;;;;;;;;;5047292;28;20208;-81
2022/12/20 07:07:22;;;;;;;3.07;2.83;;;;;;;;;;5047427;28;20177;-80
2022/12/20 07:09:48;;;;;;;2.03;1.80;;;;;;;;;;5046498;28;20178;-81
2022/12/20 07:12:13;;;;;;;3.87;1.50;;;;;;;;;;5052853;28;20167;-80
2022/12/20 07:14:38;;;;;;;1.50;1.40;;;;;;;;;;5061996;28;20196;-80
2022/12/20 07:17:04;;;;;;;1.53;1.43;;;;;;;;;;5036600;28;20189;-80
2022/12/20 07:19:29;;;;;;;1.77;1.53;;;;;;;;;;5039911;28;20176;-79
2022/12/20 07:21:55;;;;;;;2.97;1.70;;;;;;;;;;5057176;28;20191;-80
2022/12/20 07:24:20;;;;;;;1.40;1.30;;;;;;;;;;5049257;28;20219;-80
2022/12/20 07:26:45;;;;;;;1.77;1.67;;;;;;;;;;5040906;28;20241;-80
2022/12/20 07:29:11;;;;;;;1.87;1.60;;;;;;;;;;5046860;28;20306;-80
2022/12/20 07:31:36;;;;;;;1.50;1.40;;;;;;;;;;5039607;28;20188;-80
2022/12/20 07:34:01;;;;;;;2.00;1.40;;;;;;;;;;5047303;28;20177;-79
2022/12/20 07:36:27;;;;;;;2.70;1.30;;;;;;;;;;5026940;28;20303;-79
2022/12/20 07:38:52;;;;;;;3.63;1.63;;;;;;;;;;5011803;28;20247;-79
2022/12/20 07:41:18;;;;;;;2.30;1.40;;;;;;;;;;5011148;28;20189;-80
2022/12/20 07:43:43;;;;;;;2.07;1.30;;;;;;;;;;5014067;28;20194;-79
2022/12/20 07:46:10;;;;;;;2.07;1.73;;;;;;;;;;5010497;28;20228;-80
2022/12/20 07:48:36;;;;;;;2.83;2.50;;;;;;;;;;5004585;28;20383;-79
2022/12/20 07:51:04;;;;;;;3.23;2.90;;;;;;;;;;5011807;28;20182;-80
2022/12/20 07:53:30;;;;;;;2.03;1.90;;;;;;;;;;5018066;28;20173;-80
2022/12/20 07:55:56;;;;;;;2.30;2.10;;;;;;;;;;5014729;28;20208;-80
2022/12/20 07:58:21;;;;;;;3.07;2.10;;;;;;;;;;5015455;28;20202;-80
2022/12/20 08:00:46;;;;;;;13.23;8.37;;;;;;;;;;5029580;28;20301;-80
2022/12/20 08:03:14;;;;;;;5.33;3.23;;;;;;;;;;5017494;28;20251;-81
2022/12/20 08:05:41;;;;;;;1.50;1.40;;;;;;;;;;5012905;28;20181;-80
2022/12/20 08:08:07;;;;;;;3.17;1.77;;;;;;;;;;5005906;28;20187;-80
2022/12/20 08:10:32;;;;;;;2.53;2.10;;;;;;;;;;5017992;28;20248;-80
2022/12/20 08:12:58;;;;;;;6.70;6.10;;;;;;;;;;5028950;28;20189;-80
2022/12/20 08:15:24;;;;;;;3.30;3.10;;;;;;;;;;5013208;28;20205;-79
2022/12/20 08:17:49;;;;;;;1.97;1.87;;;;;;;;;;5015657;28;20282;-80
2022/12/20 08:20:14;;;;;;;1.97;1.60;;;;;;;;;;5012331;28;20187;-80
2022/12/20 08:22:40;;;;;;;2.13;1.47;;;;;;;;;;5011514;28;20179;-80
2022/12/20 08:25:06;;;;;;;2.07;1.70;;;;;;;;;;5015631;28;20224;-80
2022/12/20 08:27:31;;;;;;;1.60;1.50;;;;;;;;;;5004670;28;20191;-80
2022/12/20 08:29:56;;;;;;;1.77;1.37;;;;;;;;;;5025858;28;20178;-80
2022/12/20 08:32:21;;;;;;;2.37;1.97;;;;;;;;;;5024017;28;20186;-80
2022/12/20 08:34:47;;;;;;;1.53;1.40;;;;;;;;;;5014490;28;20312;-80
2022/12/20 08:37:14;;;;;;;2.60;1.50;;;;;;;;;;5044408;28;20175;-80
2022/12/20 08:39:39;;;;;;;1.30;1.20;;;;;;;;;;5045717;28;20269;-80
2022/12/20 08:42:05;;;;;;;1.37;1.27;;;;;;;;;;5045120;28;20192;-79
2022/12/20 08:44:30;;;;;;;3.83;1.30;;;;;;;;;;5041724;28;20200;-80
2022/12/20 08:46:55;;;;;;;1.90;1.40;;;;;;;;;;5047067;28;20277;-80
2022/12/20 08:49:20;;;;;;;1.27;1.17;;;;;;;;;;5051885;28;20171;-80
2022/12/20 08:51:45;;;;;;;2.30;1.70;;;;;;;;;;5052446;28;20179;-80
2022/12/20 08:54:11;;;;;;;2.03;1.33;;;;;;;;;;5053185;28;20186;-80
2022/12/20 08:56:36;;;;;;;1.37;1.27;;;;;;;;;;5050889;28;20182;-80
2022/12/20 08:59:01;;;;;;;1.33;1.23;;;;;;;;;;5050565;28;20193;-80
2022/12/20 09:01:29;;;;;;;2.27;1.20;;;;;;;;;;5048698;28;20178;-80
2022/12/20 09:03:54;;;;;;;1.40;1.30;;;;;;;;;;5042582;28;20202;-80
2022/12/20 09:06:20;;;;;;;1.70;1.60;;;;;;;;;;5048673;28;20257;-80
2022/12/20 09:08:45;;;;;;;2.00;1.50;;;;;;;;;;5043686;28;20174;-79
2022/12/20 09:11:19;;;;;;;1.47;1.37;;;;;;;;;;5049007;28;20174;-80
2022/12/20 09:13:45;;;;;;;2.20;1.40;;;;;;;;;;5043616;28;20185;-80
2022/12/20 09:16:11;;;;;;;1.47;1.37;;;;;;;;;;5044558;28;20233;-79
2022/12/20 09:18:36;;;;;;;2.27;1.40;;;;;;;;;;5047928;28;20226;-80
2022/12/20 09:21:03;;;;;;;1.40;1.30;;;;;;;;;;5047410;28;20178;-80
2022/12/20 09:23:29;;;;;;;1.70;1.37;;;;;;;;;;5048586;28;20204;-80
2022/12/20 09:25:54;;;;;;;2.67;1.40;;;;;;;;;;5045951;28;20178;-80
2022/12/20 09:28:20;;;;;;;1.50;1.40;;;;;;;;;;5048176;28;20178;-84
2022/12/20 09:30:45;;;;;;;2.97;1.57;;;;;;;;;;5058226;28;20166;-85
2022/12/20 09:33:10;;;;;;;1.70;1.60;;;;;;;;;;5052765;28;20189;-85
2022/12/20 09:35:35;;;;;;;2.10;1.50;;;;;;;;;;5045701;28;20229;-85
2022/12/20 09:38:00;;;;;;;1.30;1.20;;;;;;;;;;5054007;28;20194;-86
2022/12/20 09:40:28;;;;;;;3.30;3.00;;;;;;;;;;5046262;28;20190;-85
2022/12/20 09:42:54;;;;;;;1.80;1.70;;;;;;;;;;5048924;28;20489;-85
2022/12/20 09:45:23;;;;;;;1.70;1.60;;;;;;;;;;5052103;28;20205;-85
2022/12/20 09:47:48;;;;;;;1.37;1.27;;;;;;;;;;5046651;28;20176;-85
2022/12/20 09:50:15;;;;;;;2.67;1.60;;;;;;;;;;5053397;28;20178;-85
2022/12/20 09:52:55;;;;;;;1.50;1.37;;;;;;;;;;5055615;28;20192;-86
2022/12/20 09:55:30;;;;;;;1.50;1.40;;;;;;;;;;5045757;28;20174;-84
2022/12/20 09:57:55;;;;;;;1.30;1.20;;;;;;;;;;5057498;28;20181;-86
2022/12/20 10:00:20;;;;;;;1.80;1.70;;;;;;;;;;5049226;28;20178;-86
2022/12/20 10:02:46;;;;;;;2.97;1.80;;;;;;;;;;5049617;28;20269;-86
2022/12/20 10:05:13;;;;;;;1.60;1.50;;;;;;;;;;5042553;28;20190;-86
2022/12/20 10:08:00;;;;;;;3.53;1.60;;;;;;;;;;5041167;28;20186;-85
2022/12/20 10:10:44;;;;;;;1.97;1.50;;;;;;;;;;5045615;28;20185;-85
2022/12/20 10:13:28;;;;;;;2.03;1.83;;;;;;;;;;5055708;28;20175;-85
2022/12/20 10:15:57;;;;;;;1.57;1.47;;;;;;;;;;5045636;28;20265;-86
2022/12/20 10:18:27;;;;;;;2.53;1.40;;;;;;;;;;5048984;28;20198;-85
2022/12/20 10:20:57;;;;;;;1.73;1.63;;;;;;;;;;5049883;28;20222;-86
2022/12/20 10:23:49;;;;;;;2.37;1.90;;;;;;;;;;5049922;28;20182;-85
2022/12/20 10:26:14;;;;;;;4.90;2.90;;;;;;;;;;5042787;28;20192;-85
2022/12/20 10:28:40;;;;;;;3.07;2.63;;;;;;;;;;5046123;28;20189;-86
2022/12/20 10:31:06;;;;;;;4.27;3.17;;;;;;;;;;5049959;28;20175;-86
2022/12/20 10:33:32;;;;;;;2.50;2.30;;;;;;;;;;5044870;28;20167;-86
2022/12/20 10:36:16;;;;;;;2.50;2.30;;;;;;;;;;5047957;28;20230;-85
2022/12/20 10:38:43;;;;;;;1.83;1.70;;;;;;;;;;5044985;28;20182;-86
2022/12/20 10:41:13;;;;;;;2.33;2.13;;;;;;;;;;5066349;28;20182;-86
2022/12/20 10:43:43;;;;;;;1.80;1.70;;;;;;;;;;5049606;28;20266;-87
2022/12/20 10:46:09;;;;;;;2.37;1.60;;;;;;;;;;5046463;28;20185;-86
2022/12/20 10:48:35;;;;;;;2.37;1.30;;;;;;;;;;5046546;28;20175;-86
2022/12/20 10:51:03;;;;;;;2.23;1.80;;;;;;;;;;5042036;28;20173;-87
2022/12/20 10:53:29;;;;;;;1.97;1.73;;;;;;;;;;5039098;28;23184;-85
2022/12/20 10:56:10;;;;;;;2.67;2.30;;;;;;;;;;5048956;28;20226;-87
2022/12/20 10:58:36;;;;;;;1.77;1.67;;;;;;;;;;5043965;28;20180;-86
2022/12/20 11:01:09;;;;;;;1.90;1.70;;;;;;;;;;5039727;28;20171;-86
2022/12/20 11:03:47;;;;;;;1.73;1.63;;;;;;;;;;5045924;28;20185;-86
2022/12/20 11:06:15;;;;;;;3.00;1.80;;;;;;;;;;5042889;28;20174;-85
2022/12/20 11:08:41;;;;;;;2.83;2.40;;;;;;;;;;5043433;28;20172;-86
2022/12/20 11:11:15;;;;;;;2.03;1.83;;;;;;;;;;5047983;28;20206;-85
2022/12/20 11:13:40;;;;;;;3.33;2.47;;;;;;;;;;5039132;28;20195;-86
2022/12/20 11:16:20;;;;;;;1.40;1.30;;;;;;;;;;5042724;28;20219;-85
2022/12/20 11:18:45;;;;;;;1.93;1.40;;;;;;;;;;5044967;28;20202;-86
2022/12/20 11:21:22;;;;;;;2.70;1.90;;;;;;;;;;5048502;28;20178;-86
2022/12/20 11:23:55;;;;;;;1.90;1.33;;;;;;;;;;5046884;28;20245;-86
2022/12/20 11:26:23;;;;;;;1.30;1.20;;;;;;;;;;5049102;28;20178;-85
2022/12/20 11:29:04;;;;;;;1.63;1.20;;;;;;;;;;5043937;28;20174;-85
2022/12/20 11:31:33;;;;;;;2.40;1.13;;;;;;;;;;5049067;28;20228;-86
2022/12/20 11:33:58;;;;;;;1.17;1.13;;;;;;;;;;5045736;28;20185;-86
2022/12/20 11:36:33;;;;;;;1.53;1.17;;;;;;;;;;5042930;28;20309;-86
2022/12/20 11:39:04;;;;;;;1.33;1.23;;;;;;;;;;5047324;28;20183;-86
2022/12/20 11:41:34;;;;;;;1.50;1.40;;;;;;;;;;5050482;28;20201;-85
2022/12/20 11:44:18;;;;;;;1.80;1.70;;;;;;;;;;5047131;28;20222;-87
2022/12/20 11:46:44;;;;;;;1.40;1.30;;;;;;;;;;5040640;28;20175;-85
2022/12/20 11:49:15;;;;;;;2.50;1.40;;;;;;;;;;5049707;28;20171;-85
2022/12/20 11:51:44;;;;;;;1.40;1.30;;;;;;;;;;5044621;28;20175;-86
2022/12/20 11:54:22;;;;;;;2.23;1.60;;;;;;;;;;5044191;28;20185;-86
2022/12/20 11:56:49;;;;;;;1.50;1.40;;;;;;;;;;5048853;28;20277;-86
2022/12/20 11:59:21;;;;;;;1.80;1.37;;;;;;;;;;5046528;28;20186;-85
2022/12/20 12:01:56;;;;;;;5.30;1.90;;;;;;;;;;5046620;28;20205;-86
2022/12/20 12:04:25;;;;;;;5.80;2.43;;;;;;;;;;5042251;28;20187;-87
2022/12/20 12:07:09;;;;;;;7.87;4.40;;;;;;;;;;5042169;28;20199;-87
2022/12/20 12:09:41;;;;;;;5.10;4.57;;;;;;;;;;5046003;28;20254;-86
2022/12/20 12:12:13;;;;;;;2.17;1.97;;;;;;;;;;5047313;28;20240;-86
2022/12/20 12:14:41;;;;;;;2.30;2.10;;;;;;;;;;5043854;28;20182;-87
2022/12/20 12:17:11;;;;;;;2.23;1.83;;;;;;;;;;5045584;28;20265;-87
2022/12/20 12:19:39;;;;;;;3.23;2.93;;;;;;;;;;5051193;28;20231;-87
2022/12/20 12:22:08;;;;;;;3.43;2.63;;;;;;;;;;5051074;28;20174;-86
2022/12/20 12:24:41;;;;;;;1.70;1.60;;;;;;;;;;5047400;28;20202;-86
2022/12/20 12:27:12;;;;;;;4.40;1.47;;;;;;;;;;5043439;28;20184;-86
2022/12/20 12:29:37;;;;;;;1.57;1.40;;;;;;;;;;5047913;28;20180;-86
2022/12/20 12:32:07;;;;;;;1.33;1.23;;;;;;;;;;5048028;28;20179;-87
2022/12/20 12:34:56;;;;;;;1.80;1.70;;;;;;;;;;5047064;28;20255;-86
2022/12/20 12:37:21;;;;;;;1.77;1.40;;;;;;;;;;5047195;28;20182;-86
2022/12/20 12:40:05;;;;;;;1.60;1.23;;;;;;;;;;5047125;28;20187;-86
2022/12/20 12:42:31;;;;;;;1.73;1.13;;;;;;;;;;5049985;28;20467;-87
2022/12/20 12:44:58;;;;;;;3.47;1.40;;;;;;;;;;5047649;28;20196;-86
2022/12/20 12:47:28;;;;;;;2.17;1.30;;;;;;;;;;5052051;28;20177;-86
2022/12/20 12:49:54;;;;;;;1.70;1.60;;;;;;;;;;5049381;28;20172;-87
2022/12/20 12:52:46;;;;;;;3.10;1.60;;;;;;;;;;5046501;28;20196;-86
2022/12/20 12:55:30;;;;;;;3.90;2.10;;;;;;;;;;5034672;28;20224;-86
2022/12/20 12:57:56;;;;;;;10.50;6.93;;;;;;;;;;5051581;28;20180;-87
2022/12/20 13:00:40;;;;;;;5.47;4.10;;;;;;;;;;5046217;28;20212;-86
2022/12/20 13:03:14;;;;;;;3.33;2.77;;;;;;;;;;5042568;28;20182;-87
2022/12/20 13:05:39;;;;;;;3.70;3.10;;;;;;;;;;5047369;28;20230;-87
2022/12/20 13:08:13;;;;;;;6.17;4.20;;;;;;;;;;5051296;28;20190;-87
2022/12/20 13:10:44;;;;;;;3.23;2.57;;;;;;;;;;5043173;28;20258;-85
2022/12/20 13:13:13;;;;;;;3.20;1.83;;;;;;;;;;5046915;28;20179;-86
2022/12/20 13:15:41;;;;;;;2.33;2.10;;;;;;;;;;5044010;28;20177;-87
2022/12/20 13:18:09;;;;;;;2.63;1.93;;;;;;;;;;5052208;28;20291;-87
2022/12/20 13:20:35;;;;;;;2.53;2.10;;;;;;;;;;5052398;28;20181;-85
2022/12/20 13:23:06;;;;;;;3.53;2.90;;;;;;;;;;5056342;28;20175;-87
2022/12/20 13:25:32;;;;;;;2.10;1.83;;;;;;;;;;5045700;28;20204;-86
2022/12/20 13:28:15;;;;;;;1.73;1.63;;;;;;;;;;5044133;28;20235;-86
2022/12/20 13:31:03;;;;;;;2.90;1.70;;;;;;;;;;5052639;28;20424;-87
2022/12/20 13:33:29;;;;;;;2.63;1.80;;;;;;;;;;5062863;28;20179;-87
2022/12/20 13:35:56;;;;;;;2.03;1.45;;;;;;;;;;5020812;28;20220;-86
2022/12/20 13:38:40;;;;;;;2.10;1.90;;;;;;;;;;5004872;28;20188;-86
2022/12/20 13:41:11;;;;;;;5.67;3.27;;;;;;;;;;5034558;28;20175;-84
2022/12/20 13:43:46;;;;;;;2.50;1.50;;;;;;;;;;5015314;28;20265;-86
2022/12/20 13:46:13;;;;;;;1.50;1.40;;;;;;;;;;5011697;28;20175;-87
2022/12/20 13:48:45;;;;;;;2.20;2.00;;;;;;;;;;5030019;28;20168;-86
2022/12/20 13:51:14;;;;;;;2.67;1.80;;;;;;;;;;5011188;28;20267;-87
2022/12/20 13:53:46;;;;;;;2.30;1.93;;;;;;;;;;5010050;28;20176;-86
2022/12/20 13:56:27;;;;;;;3.07;2.30;;;;;;;;;;5015394;28;20226;-85
2022/12/20 13:58:57;;;;;;;3.80;2.00;;;;;;;;;;5009557;28;20172;-87
2022/12/20 14:01:23;;;;;;;2.03;1.83;;;;;;;;;;5012525;28;20248;-86
2022/12/20 14:03:49;;;;;;;2.50;1.30;;;;;;;;;;5009402;28;20215;-85
2022/12/20 14:06:17;;;;;;;1.67;1.57;;;;;;;;;;5030693;28;20180;-85
2022/12/20 14:08:46;;;;;;;2.23;1.50;;;;;;;;;;5030666;28;20225;-84
2022/12/20 14:11:13;;;;;;;2.60;1.23;;;;;;;;;;5020387;28;20176;-85
2022/12/20 14:13:39;;;;;;;1.57;1.47;;;;;;;;;;5006442;28;20181;-85
2022/12/20 14:16:09;;;;;;;2.40;1.60;;;;;;;;;;5020313;28;20198;-85
2022/12/20 14:18:35;;;;;;;3.20;1.57;;;;;;;;;;5014565;28;20205;-85
2022/12/20 14:21:02;;;;;;;2.30;1.93;;;;;;;;;;5019486;28;20175;-85
2022/12/20 14:23:34;;;;;;;3.63;2.43;;;;;;;;;;5010079;28;20273;-85
2022/12/20 14:26:00;;;;;;;3.63;2.20;;;;;;;;;;5011363;28;20232;-85
2022/12/20 14:28:39;;;;;;;4.80;2.27;;;;;;;;;;5013761;28;20184;-86
2022/12/20 14:31:05;;;;;;;3.07;2.10;;;;;;;;;;5014624;28;20185;-85
2022/12/20 14:33:35;;;;;;;2.53;2.33;;;;;;;;;;5010692;28;20201;-86
2022/12/20 14:36:26;;;;;;;1.93;1.70;;;;;;;;;;5037690;28;20494;-86
2022/12/20 14:38:52;;;;;;;1.70;1.60;;;;;;;;;;5042119;28;20217;-86
2022/12/20 14:41:29;;;;;;;3.07;2.73;;;;;;;;;;5065434;28;20210;-87
2022/12/20 14:43:56;;;;;;;2.27;2.10;;;;;;;;;;5045737;28;20197;-86
2022/12/20 14:46:22;;;;;;;1.60;1.50;;;;;;;;;;5049741;28;20175;-86
2022/12/20 14:48:47;;;;;;;2.17;1.33;;;;;;;;;;5054919;28;20184;-85
2022/12/20 14:51:18;;;;;;;1.43;1.33;;;;;;;;;;5047673;28;20185;-86
2022/12/20 14:53:46;;;;;;;8.37;4.97;;;;;;;;;;5049154;28;20191;-87
2022/12/20 14:56:19;;;;;;;5.20;3.07;;;;;;;;;;5043081;28;20210;-86
2022/12/20 14:58:44;;;;;;;6.80;4.97;;;;;;;;;;5041774;28;20227;-87